CDT,Max TemperatureF,Mean TemperatureF,Min TemperatureF,Max Dew PointF,MeanDew PointF,Min DewpointF,Max Humidity, Mean Humidity, Min Humidity, Max Sea Level PressureIn, Mean Sea Level PressureIn, Min Sea Level PressureIn, Max VisibilityMiles, Mean VisibilityMiles, Min VisibilityMiles, Max Wind SpeedMPH, Mean Wind SpeedMPH, Max Gust SpeedMPH,PrecipitationIn, CloudCover, Events, WindDirDegrees
2013-9-1,102,87,72,72,67,61,84,55,26,29.87,29.82,29.77,10,10,10,14,4,21,0.00,1,Thunderstorm,227
2013-9-2,91,78,64,72,67,57,90,65,36,29.98,29.92,29.87,10,10,10,12,4,21,0.00,3,,6
2013-9-3,91,76,62,66,62,59,96,66,37,30.03,29.98,29.93,10,10,10,12,3,18,0.00,1,,29
2013-9-4,95,80,66,65,63,60,90,60,32,30.10,30.04,30.00,10,10,10,8,2,,0.00,0,,76
2013-9-5,96,80,66,62,59,57,73,51,29,30.14,30.08,30.04,10,10,10,9,3,,0.00,1,,87
2013-9-6,97,80,64,63,60,57,87,52,27,30.10,30.04,29.96,10,10,10,7,3,,0.00,2,,94
2013-9-7,99,82,66,67,62,59,81,52,27,30.02,29.96,29.89,10,10,10,8,3,,0.00,1,,175
2013-9-8,97,83,69,67,61,57,84,51,28,29.98,29.93,29.86,10,10,10,9,4,,0.00,1,,204
2013-9-9,96,82,68,65,61,57,78,49,29,30.03,29.96,29.91,10,8,0,13,4,20,0.00,0,,183
2013-9-10,93,82,70,66,61,56,76,50,30,30.10,30.04,29.97,10,10,10,13,5,21,0.00,0,,175
2013-9-11,96,80,64,66,63,59,93,59,30,30.13,30.07,30.01,10,10,10,7,2,,0.00,1,,108
2013-9-12,93,81,69,68,66,64,90,65,38,30.08,30.02,29.97,10,10,9,9,3,,0.00,1,Thunderstorm,11
2013-9-13,90,78,68,68,65,60,96,66,46,30.02,29.97,29.91,10,10,8,13,4,21,0.00,1,,42
2013-9-14,88,76,64,60,55,51,68,51,34,30.04,29.97,29.92,10,10,10,8,5,,0.00,2,,110
2013-9-15,91,77,63,64,57,47,65,48,37,30.04,30.00,29.96,10,10,10,10,4,16,0.00,1,,166
2013-9-16,91,78,66,64,62,60,84,55,37,30.16,30.07,30.01,10,10,2,12,5,21,0.00,2,,53
2013-9-17,95,81,69,70,62,55,90,61,33,30.09,30.03,29.95,10,10,5,9,3,,0.06,3,Rain,125
2013-9-18,93,82,72,71,67,63,91,64,39,30.01,29.95,29.88,10,10,8,13,5,20,0.02,2,Rain-Thunderstorm,153
2013-9-19,91,81,71,70,66,64,94,61,41,29.99,29.92,29.86,10,9,4,16,7,23,0.08,2,Rain-Thunderstorm,181
2013-9-20,75,68,63,70,66,55,100,87,68,29.99,29.95,29.89,10,9,1,16,8,25,0.57,6,Rain,23
2013-9-21,80,66,53,55,51,44,93,64,28,30.02,29.95,29.90,10,10,10,14,8,24,0.00,1,,20
2013-9-22,82,64,46,51,47,41,97,65,25,29.98,29.90,29.83,10,10,10,7,3,,0.00,0,,88
2013-9-23,82,67,52,54,50,47,89,60,30,29.89,29.85,29.77,10,10,10,10,5,16,0.00,0,,127
2013-9-24,86,70,55,57,51,43,93,60,23,29.92,29.88,29.84,10,10,10,18,4,23,0.00,1,,299
2013-9-25,89,70,52,57,52,47,96,60,24,29.91,29.85,29.78,10,10,10,7,1,,0.00,1,,158
2013-9-26,93,78,62,58,55,52,78,49,27,29.89,29.85,29.81,10,10,10,13,6,20,0.00,1,,154
2013-9-27,89,78,66,59,58,54,73,52,31,29.96,29.90,29.85,10,10,10,12,6,23,0.00,1,,145
2013-9-28,81,71,62,68,63,58,97,85,54,30.08,29.98,29.86,10,7,1,15,8,25,0.49,7,Rain-Thunderstorm,314
2013-9-29,78,66,53,58,53,47,93,70,35,30.06,30.00,29.92,10,10,10,13,5,17,0.00,2,,4
2013-9-30,84,67,50,64,56,50,100,79,37,29.94,29.89,29.82,10,8,0,10,2,16,0.07,2,Fog,141